• Join FlightAware (Why Join?)
  • Login
  • US Flag 
01:41AM EDT


 

Airport Tracker/Info


-or-


 

Live Flight TrackerFlight Track Log ✈ ZK-PBG ✈ 04-May-2013 ✈ YSSY / SYD - NFFN / NAN

Flight Track Log - Related Links

Times and Time Zones

All times are in EDT time to prevent confusion due to time zone crossing. See the ZK-PBG flight status page for this flight to view local times or setup timezone preferences in your user account.

Time Position Orientation Groundspeed Altitude Reporting Facility
EDT Latitude Longitude Course Direction KTS MPH feet Rate Location/Type
06:41PM -33.9425 151.2533 272° West 10,600  Level Aus ATC (Calculated)
06:41PM -33.9410 151.1860 351° North 183 211 600 -21,840 Descending FlightAware
06:41PM -33.9280 151.1890 11° North 183 211 1,500 2,760 Climbing FlightAware
06:42PM -33.9210 151.2000 53° Northeast 195 224 2,000 1,920 Climbing FlightAware
06:42PM -33.9190 151.2130 80° East 204 235 2,300 1,920 Climbing FlightAware
06:42PM -33.9230 151.2290 107° East 203 234 2,800 1,800 Climbing FlightAware
06:42PM -33.9331 151.2636 107° East 223 257 3,500 1,200 Climbing Aus ATC (RADAR)
06:42PM -33.9320 151.2610 107° East 242 278 3,400 1,740 Descending FlightAware
06:43PM -33.9360 151.3010 97° East 270 311 4,400 2,280 Climbing FlightAware
06:43PM -33.9352 151.3397 97° East 273 314 5,100 1,200 Climbing Aus ATC (RADAR)
06:43PM -33.9350 151.3360 97° East 287 330 4,900 -300 Descending FlightAware
06:44PM -33.9340 151.3900 89° East 335 386 4,900  Level FlightAware
06:44PM -33.9310 151.4170 82° East 346 398 4,900 900 Level FlightAware
06:45PM -33.9160 151.4600 67° East 361 415 5,500 3,540 Climbing FlightAware
06:45PM -33.8848 151.5288 67° East 365 420 7,800 4,380 Climbing Aus ATC (RADAR)
06:45PM -33.8830 151.5320 67° East 369 425 7,700 2,100 Descending FlightAware
06:45PM -33.8660 151.5710 62° Northeast 371 427 8,900 3,000 Climbing FlightAware
06:46PM -33.8600 151.5840 61° Northeast 376 433 9,200 3,720 Climbing FlightAware
06:46PM -33.8392 151.6298 61° Northeast 376 433 10,400 2,820 Climbing Aus ATC (RADAR)
06:46PM -33.8088 151.6965 61° Northeast 397 457 11,700 2,640 Climbing Aus ATC (RADAR)
06:48PM -33.7398 151.8476 61° Northeast 410 472 15,300 2,640 Climbing Aus ATC (RADAR)
06:49PM -33.6938 151.9493 61° Northeast 424 488 17,300 2,280 Climbing Aus ATC (RADAR)
06:49PM -33.6410 152.0640 61° Northeast 433 498 19,300 1,920 Climbing Aus ATC (RADAR)
06:50PM -33.5966 152.1616 61° Northeast 436 502 20,500 1,800 Climbing Aus ATC (RADAR)
06:51PM -33.5414 152.2815 61° Northeast 442 509 22,300 1,800 Climbing Aus ATC (RADAR)
06:52PM -33.5059 152.3582 61° Northeast 457 526 23,200 1,500 Climbing Aus ATC (RADAR)
06:53PM -33.4482 152.4823 61° Northeast 457 526 24,600 1,500 Climbing Aus ATC (RADAR)
06:53PM -33.4325 152.5162 61° Northeast 459 528 25,000 960 Climbing Aus ATC (RADAR)
06:53PM -33.3952 152.5961 61° Northeast 477 549 25,400 900 Climbing Aus ATC (RADAR)
06:54PM -33.3286 152.7383 61° Northeast 494 568 26,500 1,200 Climbing Aus ATC (RADAR)
06:55PM -33.2776 152.8481 61° Northeast 489 563 27,600 1,320 Climbing Aus ATC (RADAR)
06:56PM -33.2098 152.9925 61° Northeast 488 562 28,900 900 Climbing Aus ATC (RADAR)
06:57PM -33.1750 153.0660 61° Northeast 516 594 29,000 480 Climbing FlightAware
06:57PM -33.1290 153.1630 60° Northeast 526 605 29,500 960 Climbing FlightAware
06:58PM -33.0916 153.2425 60° Northeast 513 590 30,100 840 Climbing Aus ATC (RADAR)
06:58PM -33.0870 153.2510 60° Northeast 533 613 30,000 1,080 Descending FlightAware
06:59PM -33.0311 153.3703 60° Northeast 517 595 31,000 1,020 Climbing Aus ATC (RADAR)
06:59PM -33.0320 153.3680 60° Northeast 533 613 30,800 600 Descending FlightAware
06:59PM -32.9810 153.4750 60° Northeast 536 617 31,500 1,080 Climbing FlightAware
07:00PM -32.9210 153.6010 60° Northeast 535 616 32,500 1,320 Climbing FlightAware
07:01PM -32.8870 153.6720 60° Northeast 531 611 33,200 1,620 Climbing FlightAware
07:01PM -32.8483 153.7527 60° Northeast 514 592 34,100 1,200 Climbing Aus ATC (RADAR)
07:02PM -32.8280 153.7950 60° Northeast 524 603 34,200 660 Climbing FlightAware
07:02PM -32.7790 153.8960 60° Northeast 522 601 34,900 540 Climbing FlightAware
07:03PM -32.7103 154.0385 60° Northeast 504 580 35,100 180 Climbing Aus ATC (RADAR)
07:03PM -32.6922 154.0754 60° Northeast 504 580 35,100 -300 Level Aus ATC (RADAR)
07:03PM -32.6910 154.0790 60° Northeast 523 602 35,000  Descending FlightAware
07:04PM -32.6502 154.1628 60° Northeast 503 579 35,100  Climbing Aus ATC (RADAR)
07:04PM -32.6450 154.1740 60° Northeast 523 602 35,000 -180 Descending FlightAware
07:05PM -32.5970 154.2720 60° Northeast 522 601 35,000 60 Level FlightAware
07:05PM -32.5659 154.3361 60° Northeast 501 577 35,100  Climbing Aus ATC (RADAR)
07:05PM -32.5490 154.3700 60° Northeast 522 601 35,000 -120 Descending FlightAware
07:06PM -32.4850 154.5020 60° Northeast 523 602 35,000  Level FlightAware
07:07PM -32.4340 154.6080 60° Northeast 523 602 35,000  Level FlightAware
07:08PM -32.3930 154.6920 60° Northeast 523 602 35,000  Level FlightAware
07:08PM -32.3280 154.8200 59° Northeast 522 601 35,000  Level FlightAware
07:09PM -32.2640 154.9490 60° Northeast 521 600 35,000  Level FlightAware
07:10PM -32.2300 155.0170 59° Northeast 520 598 35,000 60 Level FlightAware
07:10PM -32.1994 155.0742 59° Northeast 505 581 35,100  Climbing Aus ATC (RADAR)
07:11PM -32.1790 155.1160 59° Northeast 520 598 35,000 -120 Descending FlightAware
07:11PM -32.1270 155.2200 59° Northeast 520 598 35,000 120 Level FlightAware
07:12PM -32.0560 155.3652 59° Northeast 516 594 35,200  Climbing Aus ATC (RADAR)
07:12PM -32.0480 155.3810 59° Northeast 517 595 35,000 -240 Descending FlightAware
07:13PM -32.0060 155.4630 59° Northeast 517 595 35,000 60 Level FlightAware
07:13PM -31.9583 155.5588 59° Northeast 495 570 35,100  Climbing Aus ATC (RADAR)
07:14PM -31.9640 155.5460 59° Northeast 517 595 35,000 -120 Descending FlightAware
07:15PM -31.8620 155.7500 60° Northeast 520 598 35,000  Level FlightAware
07:16PM -31.8200 155.8330 59° Northeast 520 598 35,000  Level FlightAware
07:16PM -31.7770 155.9150 58° Northeast 520 598 35,000 180 Level FlightAware
07:17PM -31.7243 156.0191 58° Northeast 517 595 35,200  Climbing Aus ATC (RADAR)
07:17PM -31.7350 155.9970 58° Northeast 520 598 35,000 -240 Descending FlightAware
07:18PM -31.6930 156.0800 59° Northeast 520 598 35,000  Level FlightAware
07:18PM -31.6410 156.1830 59° Northeast 520 598 35,000  Level FlightAware
07:19PM -31.5980 156.2650 58° Northeast 520 598 35,000  Level FlightAware
07:20PM -31.5560 156.3470 59° Northeast 520 598 35,000 60 Level FlightAware
07:20PM -31.4359 156.5790 59° Northeast 521 600 35,100  Climbing Aus ATC (RADAR)
07:20PM -31.5140 156.4300 59° Northeast 520 598 35,000 -180 Descending FlightAware
07:21PM -31.4720 156.5120 59° Northeast 520 598 35,000  Level FlightAware
07:22PM -31.4190 156.6150 59° Northeast 520 598 35,000  Level FlightAware
07:23PM -31.3770 156.6970 59° Northeast 520 598 35,000  Level FlightAware
07:23PM -31.3350 156.7790 59° Northeast 520 598 35,000  Level FlightAware
07:24PM -31.2930 156.8610 59° Northeast 520 598 35,000  Level FlightAware
07:26PM -31.0333 157.3511 237° Southwest 36,000 420 Climbing Aus ATC (Calculated)
07:27PM -31.1110 157.2116 59° Northeast  Level Estimated
07:28PM -30.9319 157.5445 59° Northeast  Level Estimated
07:28PM -30.8886 157.6239 60° Northeast 36,000  Level Aus ATC (Calculated)
07:29PM -30.8617 157.6776 58° Northeast  Level Estimated
07:30PM -30.7656 157.8566 58° Northeast  Level Estimated
07:31PM -30.6952 157.9893 58° Northeast  Level Estimated
07:31PM -30.6575 158.0556 60° Northeast 36,000  Level Aus ATC (Calculated)
07:32PM -30.6246 158.1218 58° Northeast  Level Estimated
07:33PM -30.5480 158.2608 58° Northeast  Level Estimated
07:33PM -30.4862 158.3727 58° Northeast 36,000  Level Aus ATC (Calculated)
07:35PM -30.3951 158.5420 58° Northeast  Level Estimated
07:36PM -30.3240 158.6737 58° Northeast  Level Estimated
07:36PM -30.2844 158.7429 59° Northeast 36,000  Level Aus ATC (Calculated)
07:37PM -30.2527 158.8052 58° Northeast  Level Estimated
07:37PM -30.1735 158.9449 105° East 36,000  Level Aus ATC (Calculated)
07:38PM -30.1738 158.9465 58° Northeast  Level Estimated
07:39PM -30.0900 159.0978 58° Northeast  Level Estimated
07:40PM -30.0184 159.2287 58° Northeast  Level Estimated
07:41PM -29.9466 159.3594 58° Northeast  Level Estimated
07:41PM -29.8872 159.4619 63° Northeast 36,000  Level Aus ATC (Calculated)
07:42PM -29.8747 159.4899 58° Northeast  Level Estimated
07:43PM -29.7743 159.6660 58° Northeast  Level Estimated
07:44PM -29.7021 159.7961 57° Northeast  Level Estimated
07:44PM -29.6696 159.8505 59° Northeast 36,000  Level Aus ATC (Calculated)
07:45PM -29.6297 159.9260 57° Northeast  Level Estimated
07:46PM -29.5319 160.0970 57° Northeast  Level Estimated
07:47PM -29.4593 160.2265 57° Northeast  Level Estimated
07:47PM -29.3974 160.3313 63° Northeast 36,000  Level Aus ATC (Calculated)
07:48PM -29.3866 160.3557 57° Northeast  Level Estimated
07:49PM -29.3051 160.4948 57° Northeast  Level Estimated
07:50PM -29.2321 160.6237 57° Northeast  Level Estimated
07:51PM -29.1590 160.7524 57° Northeast  Level Estimated
07:51PM -29.1072 160.8377 297° West 36,000  Level Aus ATC (Calculated)
07:51PM -29.1072 160.8377 57° Northeast 36,000  Level Aus ATC (Calculated)
07:53PM -28.9997 161.0260 57° Northeast  Level Estimated
07:53PM -28.9492 161.1108 56° Northeast 36,000  Level Aus ATC (Calculated)
07:54PM -28.8474 161.2858 58° Northeast 36,000  Level Aus ATC (Calculated)
07:55PM -28.8290 161.3199 57° Northeast  Level Estimated
07:56PM -28.7553 161.4476 57° Northeast  Level Estimated
07:57PM -28.6962 161.5476 57° Northeast  Level Estimated
07:58PM -28.6222 161.6750 57° Northeast  Level Estimated
07:59PM -28.5481 161.8023 56° Northeast  Level Estimated
07:59PM -28.4995 161.8787 60° Northeast 36,000  Level Aus ATC (Calculated)
08:00PM -28.4739 161.9294 56° Northeast  Level Estimated
08:01PM -28.3881 162.0691 56° Northeast  Level Estimated
08:02PM -28.3136 162.1958 56° Northeast  Level Estimated
08:02PM -28.3011 162.2130 56° Northeast 36,000  Level Aus ATC (Calculated)
08:03PM -28.2422 162.3118 56° Northeast 36,000  Level Aus ATC (Calculated)
08:04PM -28.1706 162.4343 56° Northeast  Level Estimated
08:05PM -28.1003 162.5517 56° Northeast  Level Estimated
08:06PM -28.0255 162.6777 56° Northeast  Level Estimated
08:07PM -27.9505 162.8036 56° Northeast  Level Estimated
08:08PM -27.8755 162.9293 56° Northeast  Level Estimated
08:09PM -27.8003 163.0548 56° Northeast  Level Estimated
08:10PM -27.7250 163.1801 56° Northeast  Level Estimated
08:11PM -27.6496 163.3053 56° Northeast  Level Estimated
08:12PM -27.5741 163.4303 56° Northeast  Level Estimated
08:13PM -27.4984 163.5551 56° Northeast  Level Estimated
08:14PM -27.4227 163.6798 56° Northeast  Level Estimated
08:15PM -27.3468 163.8043 56° Northeast  Level Estimated
08:16PM -27.2708 163.9286 56° Northeast  Level Estimated
08:17PM -27.1947 164.0527 55° Northeast  Level Estimated
08:18PM -27.1186 164.1767 55° Northeast  Level Estimated
08:19PM -27.0423 164.3005 55° Northeast  Level Estimated
08:20PM -26.9659 164.4241 55° Northeast  Level Estimated
08:21PM -26.8894 164.5476 55° Northeast  Level Estimated
08:22PM -26.8127 164.6709 55° Northeast  Level Estimated
08:23PM -26.7360 164.7940 55° Northeast  Level Estimated
08:24PM -26.6592 164.9170 55° Northeast  Level Estimated
08:25PM -26.5823 165.0398 55° Northeast  Level Estimated
08:26PM -26.5052 165.1624 55° Northeast  Level Estimated
08:27PM -26.4281 165.2849 55° Northeast  Level Estimated
08:28PM -26.3508 165.4072 55° Northeast  Level Estimated
08:29PM -26.2735 165.5293 55° Northeast  Level Estimated
08:30PM -26.1960 165.6513 55° Northeast  Level Estimated
08:31PM -26.1184 165.7731 55° Northeast  Level Estimated
08:32PM -26.0408 165.8947 55° Northeast  Level Estimated
08:33PM -25.9630 166.0162 55° Northeast  Level Estimated
08:34PM -25.8852 166.1376 55° Northeast  Level Estimated
08:35PM -25.8072 166.2587 54° Northeast  Level Estimated
08:36PM -25.7291 166.3797 54° Northeast  Level Estimated
08:37PM -25.6509 166.5006 54° Northeast  Level Estimated
08:38PM -25.5727 166.6213 54° Northeast  Level Estimated
08:39PM -25.4943 166.7418 54° Northeast  Level Estimated
08:40PM -25.4158 166.8622 54° Northeast  Level Estimated
08:41PM -25.3373 166.9824 54° Northeast  Level Estimated
08:42PM -25.2586 167.1025 54° Northeast  Level Estimated
08:43PM -25.1799 167.2224 54° Northeast  Level Estimated
08:44PM -25.1010 167.3422 54° Northeast  Level Estimated
08:45PM -25.0221 167.4618 54° Northeast  Level Estimated
08:46PM -24.9430 167.5812 54° Northeast  Level Estimated
08:47PM -24.8639 167.7005 54° Northeast  Level Estimated
08:48PM -24.7847 167.8197 54° Northeast  Level Estimated
08:49PM -24.7053 167.9387 54° Northeast  Level Estimated
08:50PM -24.6259 168.0575 54° Northeast  Level Estimated
08:51PM -24.5464 168.1762 54° Northeast  Level Estimated
08:52PM -24.4668 168.2947 54° Northeast  Level Estimated
08:53PM -24.3871 168.4131 54° Northeast  Level Estimated
08:54PM -24.3073 168.5314 53° Northeast  Level Estimated
08:55PM -24.2274 168.6494 53° Northeast  Level Estimated
08:56PM -24.1474 168.7674 53° Northeast  Level Estimated
08:57PM -24.0674 168.8852 53° Northeast  Level Estimated
08:58PM -23.9872 169.0028 53° Northeast  Level Estimated
08:59PM -23.9070 169.1203 53° Northeast  Level Estimated
09:00PM -23.8267 169.2377 53° Northeast  Level Estimated
09:01PM -23.7463 169.3549 53° Northeast  Level Estimated
09:02PM -23.6657 169.4720 53° Northeast  Level Estimated
09:03PM -23.5851 169.5889 53° Northeast  Level Estimated
09:04PM -23.5044 169.7057 53° Northeast  Level Estimated
09:05PM -23.4237 169.8223 53° Northeast  Level Estimated
09:06PM -23.3428 169.9388 53° Northeast  Level Estimated
09:07PM -23.2619 170.0551 53° Northeast  Level Estimated
09:08PM -23.1808 170.1714 53° Northeast  Level Estimated
09:09PM -23.0997 170.2874 53° Northeast  Level Estimated
09:10PM -23.0185 170.4034 53° Northeast  Level Estimated
09:11PM -22.9373 170.5191 53° Northeast  Level Estimated
09:12PM -22.8559 170.6348 53° Northeast  Level Estimated
09:13PM -22.7744 170.7503 53° Northeast  Level Estimated
09:14PM -22.6929 170.8657 53° Northeast  Level Estimated
09:15PM -22.6113 170.9809 53° Northeast  Level Estimated
09:16PM -22.5296 171.0960 52° Northeast  Level Estimated
09:17PM -22.4478 171.2110 52° Northeast  Level Estimated
09:18PM -22.3659 171.3258 52° Northeast  Level Estimated
09:19PM -22.2840 171.4405 52° Northeast  Level Estimated
09:20PM -22.2020 171.5551 52° Northeast  Level Estimated
09:21PM -22.1199 171.6695 52° Northeast  Level Estimated
09:22PM -22.0377 171.7838 52° Northeast  Level Estimated
09:23PM -21.9554 171.8979 52° Northeast  Level Estimated
09:24PM -21.8731 172.0119 52° Northeast  Level Estimated
09:25PM -21.7907 172.1258 52° Northeast  Level Estimated
09:26PM -21.7082 172.2396 52° Northeast  Level Estimated
09:27PM -21.6256 172.3532 52° Northeast  Level Estimated
09:28PM -21.5429 172.4667 52° Northeast  Level Estimated
09:29PM -21.4602 172.5801 52° Northeast  Level Estimated
09:30PM -21.3774 172.6933 52° Northeast  Level Estimated
09:31PM -21.2945 172.8065 52° Northeast  Level Estimated
09:32PM -21.2116 172.9194 52° Northeast  Level Estimated
09:33PM -21.1285 173.0323 52° Northeast  Level Estimated
09:34PM -21.0454 173.1451 52° Northeast  Level Estimated
09:35PM -20.9622 173.2577 52° Northeast  Level Estimated
09:36PM -20.8790 173.3701 52° Northeast  Level Estimated
09:37PM -20.7957 173.4825 52° Northeast  Level Estimated
09:38PM -20.7122 173.5947 52° Northeast  Level Estimated
09:39PM -20.6288 173.7068 52° Northeast  Level Estimated
09:40PM -20.5452 173.8188 51° Northeast  Level Estimated
09:41PM -20.4616 173.9307 51° Northeast  Level Estimated
09:42PM -20.3779 174.0425 51° Northeast  Level Estimated
09:43PM -20.2942 174.1541 51° Northeast  Level Estimated
09:44PM -20.2103 174.2656 51° Northeast  Level Estimated
09:45PM -20.1264 174.3770 51° Northeast  Level Estimated
09:46PM -20.0425 174.4882 51° Northeast  Level Estimated
09:47PM -19.9584 174.5994 51° Northeast  Level Estimated
09:48PM -19.8743 174.7104 51° Northeast  Level Estimated
09:49PM -19.7901 174.8213 51° Northeast  Level Estimated
09:50PM -19.7059 174.9321 51° Northeast  Level Estimated
09:51PM -19.6216 175.0428 51° Northeast  Level Estimated
09:52PM -19.5372 175.1533 51° Northeast  Level Estimated
09:53PM -19.4527 175.2638 51° Northeast  Level Estimated
09:54PM -19.3682 175.3741 51° Northeast  Level Estimated
09:55PM -19.2836 175.4843 51° Northeast  Level Estimated
09:56PM -19.1990 175.5944 51° Northeast  Level Estimated
09:57PM -19.1143 175.7044 51° Northeast  Level Estimated
09:58PM -19.0295 175.8143 51° Northeast  Level Estimated
09:59PM -18.9447 175.9240 51° Northeast  Level Estimated
10:00PM -18.8597 176.0337 51° Northeast  Level Estimated
10:01PM -18.7748 176.1432 51° Northeast  Level Estimated
10:02PM -18.6897 176.2527 51° Northeast  Level Estimated
10:03PM -18.6046 176.3620 51° Northeast  Level Estimated
10:04PM -18.5195 176.4712 51° Northeast  Level Estimated
10:05PM -18.4342 176.5803 51° Northeast  Level Estimated
10:06PM -18.3489 176.6893 51° Northeast  Level Estimated
10:07PM -18.2636 176.7982 50° Northeast  Level Estimated
10:08PM -18.1782 176.9069 50° Northeast  Level Estimated
10:09PM -18.0927 177.0156 50° Northeast  Level Estimated
10:10PM -18.0072 177.1242 50° Northeast  Level Estimated
10:11PM -17.9216 177.2326 50° Northeast  Level Estimated
10:12PM -17.8359 177.3410 50° Northeast  Level Estimated
10:13PM -17.7547 177.4436 50° Northeast  Level Estimated
10:14PM -17.7547 177.4436 136° Southeast  Level Estimated
10:15PM -17.7547 177.4436 136° Southeast  Level Estimated
10:16PM -17.7547 177.4436 136° Southeast  Level Estimated
10:17PM -17.7547 177.4436 136° Southeast  Level Estimated
10:18PM -17.7547 177.4436 136° Southeast  Level Estimated
10:19PM -17.7547 177.4436 136° Southeast  Level Estimated
10:20PM -17.7547 177.4436 136° Southeast  Level Estimated
10:21PM -17.7547 177.4436 136° Southeast  Level Estimated
10:22PM -17.7547 177.4436 136° Southeast  Level Estimated
10:23PM -17.7547 177.4436 136° Southeast  Level Estimated
10:24PM -17.7547 177.4436 136° Southeast  Level Estimated
10:25PM -17.7547 177.4436 136° Southeast  Level Estimated
10:26PM -17.7547 177.4436 136° Southeast  Level Estimated
10:27PM -17.7547 177.4436 136° Southeast  Level Estimated
10:28PM -17.7547 177.4436 136° Southeast  Level Estimated
10:29PM -17.7547 177.4436 136° Southeast  Level Estimated
10:30PM -17.7547 177.4436 136° Southeast  Level Estimated